Time;durP1;ratioP1;P1;durP2;ratioP2;P2;SDS_P1;SDS_P2;PMS_P1;PMS_P2;Temp;Humidity;BMP_temperature;BMP_pressure;BME280_temperature;BME280_humidity;BME280_pressure;Samples;Min_cycle;Max_cycle;Signal;HPM_P1;HPM_P2
2022/02/18 00:00:25;;;;;;;28.13;3.10;;;8.20;99.90;;;;;;5052320;28;20698;-68
2022/02/18 00:02:52;;;;;;;25.02;3.13;;;8.20;99.90;;;;;;5070316;28;20211;-69
2022/02/18 00:05:18;;;;;;;19.75;2.65;;;8.20;99.90;;;;;;5070592;28;20262;-68
2022/02/18 00:07:44;;;;;;;27.08;2.75;;;8.20;99.90;;;;;;5070523;28;20183;-68
2022/02/18 00:10:10;;;;;;;26.35;3.40;;;8.20;99.90;;;;;;5070580;28;20198;-68
2022/02/18 00:12:36;;;;;;;27.10;3.20;;;8.10;99.90;;;;;;5069718;28;20190;-68
2022/02/18 00:15:05;;;;;;;22.08;2.95;;;8.20;99.90;;;;;;5070622;28;20245;-68
2022/02/18 00:17:31;;;;;;;29.50;3.35;;;8.10;99.90;;;;;;5069721;28;20190;-68
2022/02/18 00:19:56;;;;;;;32.40;3.25;;;8.10;99.90;;;;;;5083890;28;20283;-68
2022/02/18 00:22:23;;;;;;;32.33;3.50;;;8.10;99.90;;;;;;5069804;28;20187;-67
2022/02/18 00:24:49;;;;;;;31.13;3.38;;;8.10;99.90;;;;;;5070165;28;20179;-69
2022/02/18 00:27:15;;;;;;;28.55;3.88;;;8.00;99.90;;;;;;5069797;28;20191;-69
2022/02/18 00:29:42;;;;;;;31.23;3.42;;;8.00;99.90;;;;;;5067414;28;20256;-68
2022/02/18 00:32:08;;;;;;;33.88;4.43;;;8.00;99.90;;;;;;5050778;28;21008;-69
2022/02/18 00:34:35;;;;;;;37.53;3.70;;;8.00;99.90;;;;;;5069507;28;20195;-68
2022/02/18 00:37:03;;;;;;;35.92;4.38;;;8.10;99.90;;;;;;5052078;28;20187;-68
2022/02/18 00:39:28;;;;;;;33.40;3.60;;;8.00;99.90;;;;;;5068756;28;20226;-69
2022/02/18 00:41:55;;;;;;;46.38;4.63;;;8.00;99.90;;;;;;5068985;28;20709;-69
2022/02/18 00:44:20;;;;;;;32.88;3.95;;;8.00;99.90;;;;;;5068741;28;20174;-69
2022/02/18 00:46:50;;;;;;;36.45;4.07;;;8.00;99.90;;;;;;5050159;28;20182;-68
2022/02/18 00:49:20;;;;;;;35.22;3.65;;;8.00;99.90;;;;;;5068442;28;20875;-67
2022/02/18 00:51:46;;;;;;;40.10;3.78;;;8.00;99.90;;;;;;5070613;28;20194;-69
2022/02/18 00:54:12;;;;;;;32.15;3.80;;;8.10;99.90;;;;;;5068260;28;20340;-67
2022/02/18 00:56:41;;;;;;;44.65;4.53;;;8.00;99.90;;;;;;5068515;28;20266;-68
2022/02/18 00:59:08;;;;;;;36.42;4.22;;;8.10;99.90;;;;;;5069296;28;20206;-68
2022/02/18 01:01:34;;;;;;;30.40;3.97;;;8.10;99.90;;;;;;5069262;28;20258;-68
2022/02/18 01:04:00;;;;;;;37.58;4.00;;;8.00;99.90;;;;;;5069789;28;20187;-68
2022/02/18 01:06:26;;;;;;;34.03;4.45;;;8.10;99.90;;;;;;5068662;28;20411;-68
2022/02/18 01:08:52;;;;;;;35.28;4.18;;;8.50;99.90;;;;;;5050654;28;20269;-67
2022/02/18 01:11:18;;;;;;;40.55;4.72;;;8.40;99.90;;;;;;5051385;28;20190;-68
2022/02/18 01:13:44;;;;;;;37.35;4.47;;;8.30;99.90;;;;;;5068145;28;20216;-67
2022/02/18 01:16:10;;;;;;;29.40;3.88;;;8.30;99.90;;;;;;5069022;28;20555;-68
2022/02/18 01:18:36;;;;;;;32.05;3.50;;;8.20;99.90;;;;;;5033360;28;20190;-67
2022/02/18 01:21:03;;;;;;;25.65;3.63;;;8.20;99.90;;;;;;5051226;28;20190;-67
2022/02/18 01:23:29;;;;;;;27.85;3.72;;;8.20;99.90;;;;;;5068652;28;20313;-68
2022/02/18 01:25:55;;;;;;;27.05;3.60;;;8.20;99.90;;;;;;5069356;28;20521;-68
2022/02/18 01:28:21;;;;;;;30.17;3.63;;;8.20;99.90;;;;;;5083068;28;20187;-68
2022/02/18 01:30:47;;;;;;;39.95;3.67;;;8.20;99.90;;;;;;5051104;28;20879;-67
2022/02/18 01:33:13;;;;;;;31.25;3.80;;;8.20;99.90;;;;;;5049130;28;20571;-67
2022/02/18 01:35:40;;;;;;;30.05;3.67;;;8.20;99.90;;;;;;5051772;28;20185;-68
2022/02/18 01:38:06;;;;;;;32.97;4.57;;;8.20;99.90;;;;;;5050637;28;20540;-67
2022/02/18 01:40:32;;;;;;;28.13;3.58;;;8.20;99.90;;;;;;5050648;28;20222;-67
2022/02/18 01:42:58;;;;;;;24.48;3.60;;;8.20;99.90;;;;;;5051121;28;20188;-69
2022/02/18 01:45:24;;;;;;;27.73;3.78;;;8.30;99.90;;;;;;5051329;28;20182;-67
2022/02/18 01:47:50;;;;;;;24.98;3.65;;;8.20;99.90;;;;;;5067162;28;20178;-68
2022/02/18 01:50:16;;;;;;;23.38;3.00;;;8.30;99.90;;;;;;5068035;28;20198;-68
2022/02/18 01:52:45;;;;;;;32.20;4.55;;;8.30;99.90;;;;;;5066553;28;20183;-69
2022/02/18 01:55:13;;;;;;;21.65;3.17;;;8.30;99.90;;;;;;5068775;28;20269;-68
2022/02/18 01:57:43;;;;;;;30.70;3.60;;;8.30;99.90;;;;;;5049177;28;20269;-68
2022/02/18 02:00:10;;;;;;;35.85;4.03;;;8.30;99.90;;;;;;5050348;28;20256;-68
2022/02/18 02:02:42;;;;;;;28.52;3.55;;;8.30;99.90;;;;;;5067137;28;20321;-69
2022/02/18 02:05:09;;;;;;;29.25;3.88;;;8.30;99.90;;;;;;5050496;28;20178;-69
2022/02/18 02:07:38;;;;;;;23.88;3.45;;;8.30;99.90;;;;;;5068180;28;20224;-68
2022/02/18 02:10:04;;;;;;;30.65;3.65;;;8.40;99.90;;;;;;5051091;28;20269;-70
2022/02/18 02:12:30;;;;;;;28.90;3.40;;;8.40;99.90;;;;;;5049274;28;20182;-68
2022/02/18 02:14:56;;;;;;;19.45;3.53;;;8.40;99.90;;;;;;5050804;28;20182;-70
2022/02/18 02:17:26;;;;;;;34.85;4.22;;;8.40;99.90;;;;;;5050060;28;20666;-68
2022/02/18 02:19:52;;;;;;;31.02;3.45;;;8.50;99.90;;;;;;5049725;28;20209;-69
2022/02/18 02:22:27;;;;;;;30.02;3.78;;;8.50;99.90;;;;;;5048481;28;20197;-68
2022/02/18 02:24:53;;;;;;;22.73;3.47;;;8.50;99.90;;;;;;5049096;28;20596;-69
2022/02/18 02:27:21;;;;;;;30.63;3.58;;;8.50;99.90;;;;;;5048971;28;20174;-69
2022/02/18 02:29:48;;;;;;;33.08;4.82;;;8.50;99.90;;;;;;5048509;28;20853;-69
2022/02/18 02:32:15;;;;;;;29.60;3.83;;;8.50;99.90;;;;;;5046835;28;20665;-69
2022/02/18 02:34:41;;;;;;;28.25;4.20;;;8.50;99.90;;;;;;5068759;28;20277;-69
2022/02/18 02:37:09;;;;;;;38.63;4.22;;;8.50;99.90;;;;;;5048559;28;20189;-69
2022/02/18 02:39:38;;;;;;;40.45;4.10;;;8.50;99.90;;;;;;5060254;28;20220;-70
2022/02/18 02:42:05;;;;;;;41.75;4.57;;;8.50;99.90;;;;;;5045686;28;20602;-70
2022/02/18 02:44:32;;;;;;;41.72;4.20;;;8.60;99.90;;;;;;5062422;28;20565;-69
2022/02/18 02:47:11;;;;;;;37.25;4.30;;;8.60;99.90;;;;;;5045698;28;20183;-68
2022/02/18 02:49:39;;;;;;;35.92;4.68;;;8.60;99.90;;;;;;5046729;28;20194;-70
2022/02/18 02:52:04;;;;;;;39.00;5.10;;;8.60;99.90;;;;;;5046420;28;20616;-69
2022/02/18 02:54:30;;;;;;;34.85;4.63;;;8.60;99.90;;;;;;5076735;28;20187;-69
2022/02/18 02:57:01;;;;;;;34.50;4.28;;;8.60;99.90;;;;;;5046463;28;20191;-70
2022/02/18 02:59:33;;;;;;;30.98;4.70;;;8.60;99.90;;;;;;5045718;28;20219;-69
2022/02/18 03:01:59;;;;;;;35.58;4.70;;;8.60;99.90;;;;;;5045096;28;20648;-70
2022/02/18 03:04:25;;;;;;;39.97;6.05;;;8.60;99.90;;;;;;5044664;28;20407;-71
2022/02/18 03:06:52;;;;;;;41.38;5.53;;;9.00;99.90;;;;;;5048461;28;20487;-69
2022/02/18 03:09:18;;;;;;;47.40;5.03;;;9.40;99.90;;;;;;5052825;28;20673;-69
2022/02/18 03:12:04;;;;;;;37.33;4.80;;;9.20;99.90;;;;;;5052195;28;20217;-70
2022/02/18 03:14:41;;;;;;;46.20;5.88;;;9.00;99.90;;;;;;5054332;28;20325;-69
2022/02/18 03:17:09;;;;;;;42.03;5.20;;;8.90;99.90;;;;;;5052478;28;20672;-68
2022/02/18 03:19:37;;;;;;;44.88;5.07;;;8.80;99.90;;;;;;5052646;28;20280;-71
2022/02/18 03:22:06;;;;;;;33.80;5.47;;;8.80;99.90;;;;;;5051976;28;20171;-69
2022/02/18 03:24:31;;;;;;;36.75;4.63;;;8.70;99.90;;;;;;5086044;28;20248;-70
2022/02/18 03:26:57;;;;;;;35.78;4.43;;;8.70;99.90;;;;;;5052434;28;20232;-69
2022/02/18 03:29:27;;;;;;;34.67;4.60;;;8.70;99.90;;;;;;5050756;28;20183;-70
2022/02/18 03:32:15;;;;;;;33.28;4.13;;;8.70;99.90;;;;;;5051843;28;20548;-68
2022/02/18 03:34:41;;;;;;;40.63;4.55;;;8.70;99.90;;;;;;5052378;28;20179;-69
2022/02/18 03:37:07;;;;;;;35.38;4.88;;;8.70;99.90;;;;;;5052043;28;20190;-69
2022/02/18 03:39:33;;;;;;;37.85;5.13;;;8.70;99.90;;;;;;5050890;28;20223;-68
2022/02/18 03:42:00;;;;;;;39.40;5.22;;;8.60;99.90;;;;;;5051019;28;20175;-69
2022/02/18 03:44:29;;;;;;;47.83;5.97;;;8.70;99.90;;;;;;5050757;28;20176;-69
2022/02/18 03:47:06;;;;;;;46.15;5.57;;;8.60;99.90;;;;;;5050657;28;20515;-68
2022/02/18 03:49:33;;;;;;;44.90;5.40;;;8.60;99.90;;;;;;5050942;28;20214;-68
2022/02/18 03:52:00;;;;;;;44.55;5.22;;;8.60;99.90;;;;;;5052492;28;20201;-68
2022/02/18 03:54:26;;;;;;;40.72;5.85;;;8.60;99.90;;;;;;5049623;28;20179;-69
2022/02/18 03:56:54;;;;;;;47.58;6.47;;;8.60;99.90;;;;;;5051538;28;20221;-68
2022/02/18 03:59:20;;;;;;;53.15;5.68;;;8.60;99.90;;;;;;5051380;28;20738;-70
2022/02/18 04:01:49;;;;;;;44.85;5.72;;;8.60;99.90;;;;;;5050880;28;20219;-69
2022/02/18 04:04:16;;;;;;;58.00;6.10;;;8.60;99.90;;;;;;5048149;28;20187;-69
2022/02/18 04:06:52;;;;;;;44.53;5.78;;;8.60;99.90;;;;;;5050002;28;20187;-69
2022/02/18 04:09:30;;;;;;;40.97;5.65;;;8.60;99.90;;;;;;5050925;28;20197;-70
2022/02/18 04:11:58;;;;;;;50.65;5.65;;;8.60;99.90;;;;;;5052189;28;20218;-68
2022/02/18 04:14:27;;;;;;;52.17;6.22;;;8.60;99.90;;;;;;5034853;28;20685;-70
2022/02/18 04:17:04;;;;;;;48.75;5.85;;;8.60;99.90;;;;;;5051325;28;20262;-68
2022/02/18 04:19:32;;;;;;;44.03;5.90;;;8.60;99.90;;;;;;5047467;28;20244;-70
2022/02/18 04:21:58;;;;;;;50.90;6.57;;;8.60;99.90;;;;;;5048282;28;20175;-70
2022/02/18 04:24:27;;;;;;;52.20;6.40;;;8.50;99.90;;;;;;5048591;28;20191;-69
2022/02/18 04:26:53;;;;;;;49.22;6.18;;;8.60;99.90;;;;;;5048892;28;20643;-65
2022/02/18 04:29:18;;;;;;;48.78;7.25;;;8.60;99.90;;;;;;5049249;28;20187;-67
2022/02/18 04:31:44;;;;;;;57.38;6.25;;;8.50;99.90;;;;;;5047365;28;20201;-69
2022/02/18 04:34:10;;;;;;;60.25;6.53;;;8.50;99.90;;;;;;5043487;28;20546;-66
2022/02/18 04:36:35;;;;;;;40.25;6.03;;;8.50;99.90;;;;;;5043969;28;20557;-67
2022/02/18 04:39:01;;;;;;;52.15;6.57;;;8.50;99.90;;;;;;5048147;28;20238;-66
2022/02/18 04:41:26;;;;;;;57.47;7.32;;;8.50;99.90;;;;;;5069808;28;20268;-70
2022/02/18 04:43:58;;;;;;;53.22;6.97;;;8.50;99.90;;;;;;5069200;28;20182;-70
2022/02/18 04:46:24;;;;;;;49.72;6.80;;;8.50;99.90;;;;;;5067730;28;20171;-71
2022/02/18 04:48:49;;;;;;;61.83;7.63;;;8.40;99.90;;;;;;5068698;28;20189;-68
2022/02/18 04:51:15;;;;;;;46.90;6.18;;;8.40;99.90;;;;;;5068440;28;20233;-67
2022/02/18 04:53:40;;;;;;;50.95;7.07;;;8.40;99.90;;;;;;5067842;28;20186;-68
2022/02/18 04:56:09;;;;;;;32.47;4.97;;;8.40;99.90;;;;;;5067530;28;20190;-68
2022/02/18 04:58:36;;;;;;;48.50;6.55;;;8.40;99.90;;;;;;5066218;28;20193;-69
2022/02/18 05:01:03;;;;;;;46.83;5.95;;;8.40;99.90;;;;;;5067383;28;20183;-68
2022/02/18 05:03:29;;;;;;;51.60;6.72;;;8.40;99.90;;;;;;5049010;28;20183;-70
2022/02/18 05:05:55;;;;;;;49.42;6.15;;;8.40;99.90;;;;;;5068788;28;20186;-69
2022/02/18 05:08:21;;;;;;;51.08;6.40;;;8.40;99.90;;;;;;5047660;28;20686;-68
2022/02/18 05:10:47;;;;;;;44.90;6.20;;;8.40;99.90;;;;;;5067266;28;20650;-67
2022/02/18 05:13:12;;;;;;;48.75;6.00;;;8.40;99.90;;;;;;5066974;28;20223;-68
2022/02/18 05:15:38;;;;;;;53.97;7.47;;;8.40;99.90;;;;;;5068152;28;20201;-67
2022/02/18 05:18:04;;;;;;;51.78;6.57;;;8.30;99.90;;;;;;5067720;28;20199;-66
2022/02/18 05:20:31;;;;;;;62.17;6.70;;;8.40;99.90;;;;;;5066739;28;20221;-67
2022/02/18 05:22:59;;;;;;;37.00;5.90;;;8.40;99.90;;;;;;5065984;28;20224;-67
2022/02/18 05:25:25;;;;;;;58.10;6.72;;;8.40;99.90;;;;;;5067606;28;20513;-68
2022/02/18 05:27:52;;;;;;;44.00;6.68;;;8.30;99.90;;;;;;5066995;28;20186;-67
2022/02/18 05:30:19;;;;;;;45.33;6.47;;;8.40;99.90;;;;;;5047303;28;20194;-69
2022/02/18 05:32:44;;;;;;;47.00;7.05;;;8.40;99.90;;;;;;5064188;28;20194;-68
2022/02/18 05:35:10;;;;;;;56.42;7.53;;;8.40;99.90;;;;;;5067008;28;20633;-68
2022/02/18 05:37:36;;;;;;;49.63;7.22;;;8.30;99.90;;;;;;5066247;28;20612;-68
2022/02/18 05:40:02;;;;;;;54.80;7.68;;;8.30;99.90;;;;;;5067844;28;20222;-69
2022/02/18 05:42:28;;;;;;;49.47;7.88;;;8.40;99.90;;;;;;5065944;28;20189;-68
2022/02/18 05:44:53;;;;;;;51.17;8.32;;;8.40;99.90;;;;;;5065775;28;20768;-70
2022/02/18 05:47:19;;;;;;;60.43;9.73;;;8.80;99.90;;;;;;5065608;28;20422;-68
2022/02/18 05:49:45;;;;;;;62.93;9.87;;;9.20;99.90;;;;;;5048929;28;20423;-68
2022/02/18 05:52:10;;;;;;;53.50;8.68;;;9.30;99.90;;;;;;5066523;28;20410;-69
2022/02/18 05:54:36;;;;;;;59.00;8.90;;;9.40;99.90;;;;;;5067176;28;20403;-69
2022/02/18 05:57:02;;;;;;;54.90;8.43;;;9.50;99.90;;;;;;5065674;28;20501;-68
2022/02/18 05:59:27;;;;;;;47.33;8.60;;;9.60;99.90;;;;;;5047494;28;20441;-68
2022/02/18 06:01:53;;;;;;;45.03;8.25;;;9.60;99.90;;;;;;5065781;28;20426;-68
2022/02/18 06:04:19;;;;;;;49.10;8.17;;;9.70;99.90;;;;;;5063963;28;20506;-68
2022/02/18 06:06:45;;;;;;;50.33;8.33;;;9.70;99.90;;;;;;5066807;28;20442;-68
2022/02/18 06:09:11;;;;;;;47.22;7.50;;;9.60;99.90;;;;;;5047598;28;20416;-68
2022/02/18 06:11:38;;;;;;;45.45;7.50;;;9.70;99.90;;;;;;5066078;28;20427;-68
2022/02/18 06:14:04;;;;;;;48.90;7.60;;;9.70;99.90;;;;;;5064790;28;20415;-69
2022/02/18 06:16:30;;;;;;;42.47;7.07;;;9.70;99.90;;;;;;5048634;28;20438;-68
2022/02/18 06:18:56;;;;;;;45.40;7.37;;;9.70;99.90;;;;;;5064523;28;20408;-68
2022/02/18 06:21:22;;;;;;;42.13;6.65;;;9.80;99.90;;;;;;5065447;28;20417;-68
2022/02/18 06:23:47;;;;;;;33.45;5.90;;;9.80;99.90;;;;;;5065330;28;20883;-67
2022/02/18 06:26:13;;;;;;;46.63;6.90;;;9.80;99.90;;;;;;5065198;28;20413;-68
2022/02/18 06:28:40;;;;;;;37.55;6.45;;;9.80;99.90;;;;;;5064706;28;20415;-69
2022/02/18 06:31:07;;;;;;;41.63;6.68;;;9.80;99.90;;;;;;5045000;28;21216;-70
2022/02/18 06:33:33;;;;;;;37.78;6.30;;;9.80;99.90;;;;;;5062889;28;20415;-71
2022/02/18 06:36:00;;;;;;;36.33;5.85;;;9.80;99.90;;;;;;5061628;28;20410;-67
2022/02/18 06:38:26;;;;;;;34.17;6.15;;;9.80;99.90;;;;;;5057745;28;20420;-67
2022/02/18 06:40:52;;;;;;;37.90;6.47;;;9.90;99.90;;;;;;5063419;28;20520;-68
2022/02/18 06:43:17;;;;;;;33.35;5.90;;;9.90;99.90;;;;;;5062821;28;20468;-68
2022/02/18 06:45:43;;;;;;;35.07;5.83;;;9.80;99.90;;;;;;5061120;28;21235;-67
2022/02/18 06:48:09;;;;;;;34.30;6.07;;;9.80;99.90;;;;;;5062017;28;20920;-68
2022/02/18 06:50:35;;;;;;;36.13;6.35;;;9.80;99.90;;;;;;5048032;28;20416;-70
2022/02/18 06:53:02;;;;;;;35.97;6.30;;;9.80;99.90;;;;;;5059684;28;20896;-70
2022/02/18 06:55:28;;;;;;;35.70;6.78;;;9.80;99.90;;;;;;5060230;28;20415;-68
2022/02/18 06:57:55;;;;;;;32.93;6.97;;;9.80;99.90;;;;;;5062796;28;20513;-70
2022/02/18 07:00:23;;;;;;;37.60;7.15;;;9.80;99.90;;;;;;5061084;28;20418;-70
2022/02/18 07:02:49;;;;;;;37.10;7.40;;;9.80;99.90;;;;;;5061870;28;20457;-67
2022/02/18 07:05:16;;;;;;;34.23;8.17;;;9.80;99.90;;;;;;5060305;28;20416;-72
2022/02/18 07:07:42;;;;;;;37.22;8.13;;;9.80;99.90;;;;;;5061839;28;20768;-68
2022/02/18 07:10:10;;;;;;;32.63;8.45;;;9.80;99.90;;;;;;5060831;28;21010;-67
2022/02/18 07:12:37;;;;;;;33.55;9.02;;;9.70;99.90;;;;;;5060956;28;20796;-67
2022/02/18 07:15:04;;;;;;;34.75;9.60;;;9.70;99.90;;;;;;5046898;28;20415;-71
2022/02/18 07:17:30;;;;;;;28.07;9.43;;;9.70;99.90;;;;;;5062718;28;20556;-67
2022/02/18 07:19:57;;;;;;;34.65;10.48;;;9.60;99.90;;;;;;5063945;28;20552;-68
2022/02/18 07:22:23;;;;;;;34.67;11.13;;;9.60;99.90;;;;;;5059828;28;20426;-69
2022/02/18 07:24:51;;;;;;;35.90;11.50;;;9.60;99.90;;;;;;5061876;28;20407;-68
2022/02/18 07:27:17;;;;;;;36.15;12.30;;;9.70;99.90;;;;;;5046511;28;20418;-71
2022/02/18 07:29:43;;;;;;;37.00;12.60;;;9.70;99.90;;;;;;5047857;28;20420;-67
2022/02/18 07:32:10;;;;;;;37.03;12.50;;;9.70;99.90;;;;;;5064035;28;20442;-71
2022/02/18 07:34:36;;;;;;;37.85;13.52;;;9.70;99.90;;;;;;5063261;28;20407;-68
2022/02/18 07:37:02;;;;;;;35.37;13.80;;;9.60;99.90;;;;;;5066384;28;20415;-69
2022/02/18 07:39:28;;;;;;;36.17;14.32;;;9.70;99.90;;;;;;5064533;28;20420;-69
2022/02/18 07:41:54;;;;;;;33.90;14.05;;;9.70;99.90;;;;;;5031134;28;20936;-69
2022/02/18 07:44:26;;;;;;;34.85;14.80;;;9.70;99.90;;;;;;5046594;28;20400;-69
2022/02/18 07:46:52;;;;;;;33.28;13.98;;;9.70;99.90;;;;;;5061971;28;20762;-69
2022/02/18 07:49:19;;;;;;;33.85;13.40;;;9.70;99.90;;;;;;5063240;28;20503;-69
2022/02/18 07:51:44;;;;;;;32.53;14.07;;;9.80;99.90;;;;;;5047822;28;21014;-69
2022/02/18 07:54:10;;;;;;;29.48;13.73;;;9.80;99.90;;;;;;5062618;28;20415;-69
2022/02/18 07:56:36;;;;;;;35.63;14.30;;;9.80;99.90;;;;;;5061974;28;20438;-69
2022/02/18 07:59:02;;;;;;;29.43;14.40;;;9.80;99.90;;;;;;5067426;28;20495;-69
2022/02/18 08:01:28;;;;;;;32.22;14.02;;;9.80;99.90;;;;;;5068521;28;20568;-70
2022/02/18 08:03:53;;;;;;;28.07;13.60;;;9.80;99.90;;;;;;5066641;28;20419;-71
2022/02/18 08:06:20;;;;;;;25.85;13.27;;;9.80;99.90;;;;;;5069371;28;20464;-68
2022/02/18 08:08:46;;;;;;;23.63;13.75;;;9.80;99.90;;;;;;5067463;28;20425;-68
2022/02/18 08:11:13;;;;;;;28.95;14.20;;;9.80;99.90;;;;;;5067822;28;20941;-69
2022/02/18 08:13:39;;;;;;;30.23;15.45;;;9.80;99.90;;;;;;5066374;28;20415;-68
2022/02/18 08:16:05;;;;;;;27.97;14.67;;;9.90;99.90;;;;;;5068008;28;20430;-69
2022/02/18 08:18:31;;;;;;;29.65;15.20;;;9.90;99.90;;;;;;5067623;28;20411;-69
2022/02/18 08:20:56;;;;;;;29.45;15.43;;;9.90;99.90;;;;;;5067233;28;20860;-69
2022/02/18 08:23:22;;;;;;;31.50;14.95;;;9.90;99.90;;;;;;5065177;28;20460;-69
2022/02/18 08:25:48;;;;;;;31.52;16.17;;;9.90;99.90;;;;;;5067620;28;20901;-69
2022/02/18 08:28:14;;;;;;;29.02;16.27;;;9.90;99.90;;;;;;5064807;28;20405;-69
2022/02/18 08:30:41;;;;;;;28.45;16.77;;;9.90;99.90;;;;;;5066930;28;20455;-69
2022/02/18 08:33:07;;;;;;;28.55;16.88;;;10.00;99.90;;;;;;5066442;28;20399;-68
2022/02/18 08:35:33;;;;;;;30.90;17.57;;;10.00;99.90;;;;;;5069106;28;20477;-68
2022/02/18 08:37:58;;;;;;;33.58;19.40;;;10.00;99.90;;;;;;5067013;28;20446;-68
2022/02/18 08:40:25;;;;;;;33.87;19.33;;;10.00;99.90;;;;;;5068485;28;20411;-68
2022/02/18 08:42:51;;;;;;;32.42;20.08;;;10.10;99.90;;;;;;5066376;28;20896;-69
2022/02/18 08:45:17;;;;;;;36.05;21.48;;;10.10;99.90;;;;;;5068628;28;20722;-69
2022/02/18 08:47:43;;;;;;;39.77;22.83;;;10.20;99.90;;;;;;5069096;28;20469;-69
2022/02/18 08:50:10;;;;;;;39.33;22.40;;;10.20;99.90;;;;;;5069840;28;20745;-69
2022/02/18 08:52:39;;;;;;;42.37;22.40;;;10.30;99.90;;;;;;5068220;28;20419;-68
2022/02/18 08:55:06;;;;;;;34.53;19.63;;;10.30;99.90;;;;;;5051893;28;20441;-69
2022/02/18 08:57:32;;;;;;;42.08;22.15;;;10.00;99.90;;;;;;5067856;28;20430;-69
2022/02/18 08:59:58;;;;;;;40.78;22.20;;;10.10;99.90;;;;;;5066345;28;20431;-69
2022/02/18 09:02:24;;;;;;;37.23;20.87;;;10.30;99.90;;;;;;5068887;28;20408;-69
2022/02/18 09:04:56;;;;;;;36.63;21.23;;;10.40;99.90;;;;;;5066801;28;20404;-68
2022/02/18 09:07:24;;;;;;;31.73;19.47;;;10.50;99.90;;;;;;5067905;28;20786;-68
2022/02/18 09:09:49;;;;;;;41.38;19.83;;;10.50;99.90;;;;;;5063875;28;20400;-70
2022/02/18 09:12:15;;;;;;;34.80;18.85;;;10.60;99.90;;;;;;5063314;28;20424;-68
2022/02/18 09:14:41;;;;;;;33.03;18.37;;;10.60;99.90;;;;;;5063150;28;20477;-67
2022/02/18 09:17:21;;;;;;;34.85;17.40;;;10.70;99.90;;;;;;5049912;28;20887;-68
2022/02/18 09:19:51;;;;;;;29.13;16.50;;;10.70;99.90;;;;;;5049527;28;20495;-69
2022/02/18 09:22:20;;;;;;;29.83;14.70;;;10.80;99.90;;;;;;5068966;28;20499;-68
2022/02/18 09:24:46;;;;;;;26.87;13.73;;;10.90;99.90;;;;;;5066509;28;20898;-68
2022/02/18 09:27:11;;;;;;;27.10;12.00;;;10.90;99.90;;;;;;5067491;28;20414;-68
2022/02/18 09:29:37;;;;;;;24.02;11.02;;;10.90;99.90;;;;;;5068744;28;20568;-68
2022/02/18 09:32:04;;;;;;;18.58;9.73;;;10.60;99.90;;;;;;5069724;28;20197;-68
2022/02/18 09:34:31;;;;;;;23.95;10.35;;;10.40;99.90;;;;;;5068653;28;20195;-68
2022/02/18 09:36:57;;;;;;;19.85;9.27;;;10.30;99.90;;;;;;5067935;28;20251;-67
2022/02/18 09:39:23;;;;;;;21.27;8.75;;;10.20;99.90;;;;;;5069609;28;20230;-68
2022/02/18 09:41:49;;;;;;;15.82;8.25;;;10.10;99.90;;;;;;5068988;28;20233;-68
2022/02/18 09:44:21;;;;;;;17.50;7.90;;;10.10;99.90;;;;;;5069223;28;20229;-68
2022/02/18 09:46:47;;;;;;;17.83;7.32;;;10.10;99.90;;;;;;5067896;28;20717;-68
2022/02/18 09:49:13;;;;;;;16.23;7.10;;;10.10;99.90;;;;;;5068025;28;20182;-68
2022/02/18 09:51:39;;;;;;;16.98;6.60;;;10.10;99.90;;;;;;5068461;28;20194;-68
2022/02/18 09:54:06;;;;;;;12.93;6.43;;;10.10;99.90;;;;;;5068189;28;20209;-67
2022/02/18 09:56:33;;;;;;;13.77;6.35;;;10.20;99.90;;;;;;5066834;28;20183;-68
2022/02/18 09:59:02;;;;;;;12.18;5.70;;;10.20;99.90;;;;;;5067999;28;20205;-67
2022/02/18 10:01:29;;;;;;;12.95;5.65;;;10.20;99.90;;;;;;5068994;28;20178;-69
2022/02/18 10:03:54;;;;;;;12.10;5.45;;;10.30;99.90;;;;;;5067797;28;20187;-68
2022/02/18 10:06:20;;;;;;;11.13;5.10;;;10.30;99.90;;;;;;5067894;28;20607;-69
2022/02/18 10:08:50;;;;;;;10.52;5.10;;;10.30;99.90;;;;;;5066485;28;20304;-69
2022/02/18 10:11:16;;;;;;;8.35;4.90;;;10.40;99.90;;;;;;5069034;28;20550;-68
2022/02/18 10:13:47;;;;;;;7.07;4.70;;;10.50;99.90;;;;;;5051574;28;20240;-69
2022/02/18 10:16:19;;;;;;;11.25;4.40;;;10.50;99.90;;;;;;5066970;28;20208;-69
2022/02/18 10:19:00;;;;;;;9.77;4.63;;;10.50;99.90;;;;;;5065323;28;20194;-70
2022/02/18 10:21:30;;;;;;;11.02;4.32;;;10.60;99.90;;;;;;5068674;28;20194;-69
2022/02/18 10:24:17;;;;;;;9.55;4.07;;;10.60;99.90;;;;;;5067349;28;20182;-68
2022/02/18 10:26:45;;;;;;;9.63;3.70;;;10.70;99.90;;;;;;5067177;28;20501;-69
2022/02/18 10:29:20;;;;;;;6.18;3.58;;;10.70;99.90;;;;;;5050033;28;20191;-69
2022/02/18 10:32:06;;;;;;;6.80;3.38;;;10.70;99.90;;;;;;5068055;28;20252;-68
2022/02/18 10:34:52;;;;;;;7.80;4.32;;;10.70;99.90;;;;;;5068590;28;20240;-68
2022/02/18 10:37:20;;;;;;;8.00;3.58;;;10.80;99.90;;;;;;5066627;28;20215;-67
2022/02/18 10:39:46;;;;;;;6.35;3.70;;;10.80;99.90;;;;;;5066127;28;20240;-69
2022/02/18 10:42:15;;;;;;;7.35;4.00;;;10.80;99.90;;;;;;5067824;28;20194;-68
2022/02/18 10:44:40;;;;;;;5.00;3.20;;;10.90;99.90;;;;;;5066925;28;20284;-69
2022/02/18 10:47:22;;;;;;;6.35;3.60;;;10.90;99.90;;;;;;5064971;28;20182;-69
2022/02/18 10:49:47;;;;;;;4.70;3.50;;;10.90;99.90;;;;;;5066444;28;20197;-69
2022/02/18 10:52:18;;;;;;;7.65;3.75;;;10.90;99.90;;;;;;5066750;28;20757;-70
2022/02/18 10:54:50;;;;;;;4.25;3.17;;;10.90;99.90;;;;;;5068437;28;20721;-70
2022/02/18 10:57:25;;;;;;;4.20;3.33;;;10.90;99.90;;;;;;5065876;28;20195;-69
2022/02/18 10:59:53;;;;;;;5.38;3.20;;;10.90;99.90;;;;;;5067605;28;20202;-69
2022/02/18 11:02:52;;;;;;;5.07;3.33;;;10.90;99.90;;;;;;5066606;28;20191;-70
2022/02/18 11:05:26;;;;;;;3.90;2.70;;;10.90;99.90;;;;;;5068248;28;20187;-70
2022/02/18 11:07:52;;;;;;;5.32;2.83;;;11.00;99.90;;;;;;5067125;28;20194;-70
2022/02/18 11:10:37;;;;;;;6.38;3.10;;;11.00;99.90;;;;;;5068411;28;20186;-70
2022/02/18 11:13:04;;;;;;;8.20;2.90;;;11.00;99.90;;;;;;5046714;28;20192;-70
2022/02/18 11:15:32;;;;;;;8.23;2.60;;;11.00;99.90;;;;;;5068159;28;20178;-70
2022/02/18 11:17:58;;;;;;;3.05;2.55;;;11.00;99.90;;;;;;5066017;28;20235;-69
2022/02/18 11:20:25;;;;;;;7.85;2.85;;;11.00;99.90;;;;;;5049284;28;20297;-69
2022/02/18 11:22:56;;;;;;;10.43;2.53;;;11.00;99.90;;;;;;5065905;28;20182;-67
2022/02/18 11:25:22;;;;;;;11.82;2.47;;;10.80;99.90;;;;;;5065852;28;20190;-68
2022/02/18 11:27:48;;;;;;;12.90;2.17;;;10.70;99.90;;;;;;5066918;28;20549;-69
2022/02/18 11:30:14;;;;;;;12.25;2.33;;;10.50;99.90;;;;;;5072184;28;20699;-68
2022/02/18 11:33:03;;;;;;;23.17;2.45;;;10.40;99.90;;;;;;5072067;28;20316;-68
2022/02/18 11:35:54;;;;;;;19.15;2.67;;;10.30;99.90;;;;;;5061277;28;20673;-68
2022/02/18 11:38:50;;;;;;;18.27;2.30;;;10.30;99.90;;;;;;5071695;28;20190;-68
2022/02/18 11:41:42;;;;;;;22.65;2.83;;;10.30;99.90;;;;;;5071672;28;20198;-68
2022/02/18 11:44:09;;;;;;;29.13;3.13;;;10.30;99.90;;;;;;5070139;28;20650;-69
2022/02/18 11:46:35;;;;;;;21.17;3.08;;;10.30;99.90;;;;;;5054200;28;20209;-68
2022/02/18 11:49:02;;;;;;;28.33;3.33;;;10.40;99.90;;;;;;5071341;28;20179;-68
2022/02/18 11:51:49;;;;;;;25.83;3.13;;;10.40;99.90;;;;;;5071412;28;20175;-68
2022/02/18 11:54:25;;;;;;;26.08;3.65;;;10.40;99.90;;;;;;5069950;28;20194;-68
2022/02/18 11:56:59;;;;;;;34.85;4.00;;;10.40;99.90;;;;;;5070898;28;20232;-68
2022/02/18 11:59:55;;;;;;;37.75;5.00;;;10.40;99.90;;;;;;5063772;28;20230;-68
2022/02/18 12:02:51;;;;;;;38.97;4.68;;;10.40;99.90;;;;;;5051118;28;20217;-69
2022/02/18 12:05:18;;;;;;;29.92;4.50;;;10.40;99.90;;;;;;5053846;28;20212;-69
2022/02/18 12:07:49;;;;;;;30.58;4.47;;;10.40;99.90;;;;;;5053831;28;20205;-68
2022/02/18 12:10:27;;;;;;;30.50;4.15;;;10.40;99.90;;;;;;5071853;28;20194;-69
2022/02/18 12:13:04;;;;;;;42.33;5.03;;;10.30;99.90;;;;;;5068526;28;22873;-68
2022/02/18 12:15:33;;;;;;;30.52;4.25;;;10.30;99.90;;;;;;5071295;28;20533;-68
2022/02/18 12:18:03;;;;;;;38.63;4.57;;;10.30;99.90;;;;;;5071410;28;20186;-68
2022/02/18 12:20:33;;;;;;;33.92;4.90;;;10.30;99.90;;;;;;5071129;28;20230;-69
2022/02/18 12:23:23;;;;;;;29.98;4.20;;;10.30;99.90;;;;;;5069329;28;20186;-69
2022/02/18 12:25:49;;;;;;;28.05;4.32;;;10.20;99.90;;;;;;5070065;28;20193;-69
2022/02/18 12:28:21;;;;;;;35.97;4.93;;;10.20;99.90;;;;;;5068915;28;20189;-69
2022/02/18 12:30:58;;;;;;;36.25;4.95;;;10.20;99.90;;;;;;5052962;28;20182;-67
2022/02/18 12:33:26;;;;;;;33.92;5.25;;;10.20;99.90;;;;;;5072208;28;20190;-67
2022/02/18 12:35:53;;;;;;;32.22;5.05;;;10.10;99.90;;;;;;5036602;28;20190;-68
2022/02/18 12:38:19;;;;;;;30.33;4.72;;;10.00;99.90;;;;;;5071508;28;20205;-68
2022/02/18 12:40:47;;;;;;;33.63;4.50;;;10.00;99.90;;;;;;5049176;28;20231;-69
2022/02/18 12:43:17;;;;;;;45.45;5.38;;;10.00;99.90;;;;;;5051910;28;20210;-68
2022/02/18 12:45:45;;;;;;;34.00;4.35;;;10.00;99.90;;;;;;5050816;28;20183;-67
2022/02/18 12:48:12;;;;;;;38.13;5.22;;;10.00;99.90;;;;;;5052020;28;20207;-68